createdAt,value
2023-03-16T00:02:31.979Z,52.61
2023-03-16T00:05:41.760Z,52.97
2023-03-16T00:08:47.665Z,53.18
2023-03-16T00:11:54.216Z,53.88
2023-03-16T00:15:02.067Z,53.53
2023-03-16T00:18:08.832Z,53.62
2023-03-16T00:21:18.518Z,53.74
2023-03-16T00:24:25.274Z,54.00
2023-03-16T00:27:31.130Z,54.17
2023-03-16T00:30:37.933Z,54.74
2023-03-16T00:33:45.650Z,55.21
2023-03-16T00:36:55.355Z,55.02
2023-03-16T00:40:08.056Z,55.49
2023-03-16T00:43:18.969Z,55.12
2023-03-16T00:46:28.041Z,54.82
2023-03-16T00:49:35.654Z,54.73
2023-03-16T00:52:45.096Z,54.29
2023-03-16T00:55:53.564Z,54.24
2023-03-16T00:59:00.685Z,54.24
2023-03-16T01:02:09.718Z,54.55
2023-03-16T01:05:16.711Z,54.82
2023-03-16T01:08:28.091Z,55.20
2023-03-16T01:11:35.555Z,55.01
2023-03-16T01:14:45.936Z,54.98
2023-03-16T01:17:51.948Z,54.97
2023-03-16T01:20:58.692Z,54.89
2023-03-16T01:24:07.649Z,55.07
2023-03-16T01:27:15.319Z,54.28
2023-03-16T01:30:24.165Z,54.33
2023-03-16T01:33:32.223Z,54.89
2023-03-16T01:36:38.097Z,55.08
2023-03-16T01:39:49.246Z,54.62
2023-03-16T01:43:07.218Z,54.81
2023-03-16T01:46:24.105Z,54.99
2023-03-16T01:49:39.512Z,54.74
2023-03-16T01:52:46.368Z,54.51
2023-03-16T01:55:56.572Z,54.76
2023-03-16T01:59:13.994Z,55.36
2023-03-16T02:02:26.690Z,55.58
2023-03-16T02:05:44.678Z,55.43
2023-03-16T02:08:57.065Z,55.56
2023-03-16T02:12:09.682Z,55.79
2023-03-16T02:15:19.670Z,55.78
2023-03-16T02:18:26.705Z,55.46
2023-03-16T02:21:49.923Z,55.50
2023-03-16T02:24:57.981Z,55.31
2023-03-16T02:28:23.646Z,55.50
2023-03-16T02:31:34.346Z,55.66
2023-03-16T02:34:42.104Z,56.24
2023-03-16T02:37:49.051Z,56.34
2023-03-16T02:41:04.277Z,56.57
2023-03-16T02:44:20.625Z,56.79
2023-03-16T02:47:38.696Z,56.71
2023-03-16T02:50:50.343Z,56.77
2023-03-16T02:53:56.155Z,56.85
2023-03-16T02:57:06.575Z,57.10
2023-03-16T03:00:18.046Z,56.73
2023-03-16T03:03:34.464Z,56.83
2023-03-16T03:06:40.403Z,56.52
2023-03-16T03:09:47.280Z,56.67
2023-03-16T03:12:53.191Z,56.59
2023-03-16T03:16:03.418Z,56.85
2023-03-16T03:19:11.829Z,57.07
2023-03-16T03:22:19.771Z,57.43
2023-03-16T03:25:26.915Z,57.77
2023-03-16T03:28:34.839Z,57.97
2023-03-16T03:31:40.732Z,58.20
2023-03-16T03:34:50.023Z,58.21
2023-03-16T03:37:55.955Z,58.60
2023-03-16T03:41:02.807Z,58.91
2023-03-16T03:44:15.312Z,59.11
2023-03-16T03:47:22.626Z,58.86
2023-03-16T03:50:31.966Z,59.08
2023-03-16T03:54:07.532Z,59.10
2023-03-16T03:57:24.372Z,59.22
2023-03-16T04:00:31.239Z,58.90
2023-03-16T04:03:37.883Z,59.09
2023-03-16T04:06:48.219Z,59.23
2023-03-16T04:09:54.854Z,59.50
2023-03-16T04:13:06.406Z,59.05
2023-03-16T04:16:16.533Z,59.14
2023-03-16T04:19:26.046Z,59.35
2023-03-16T04:22:37.369Z,59.33
2023-03-16T04:25:43.357Z,59.40
2023-03-16T04:28:50.584Z,59.23
2023-03-16T04:31:58.573Z,59.29
2023-03-16T04:35:09.409Z,59.32
2023-03-16T04:38:29.527Z,58.93
2023-03-16T04:41:45.850Z,59.22
2023-03-16T04:44:56.967Z,59.12
2023-03-16T04:48:06.002Z,58.92
2023-03-16T04:51:12.013Z,58.83
2023-03-16T04:54:27.201Z,58.73
2023-03-16T04:57:33.205Z,58.59
2023-03-16T05:00:40.896Z,58.30
2023-03-16T05:03:57.060Z,58.14
2023-03-16T05:07:05.186Z,58.08
2023-03-16T05:10:22.125Z,57.78
2023-03-16T05:13:28.916Z,57.90
2023-03-16T05:16:37.740Z,58.29
2023-03-16T05:19:45.457Z,58.30
2023-03-16T05:22:54.007Z,58.43
2023-03-16T05:26:13.403Z,58.64
2023-03-16T05:29:19.852Z,58.81
2023-03-16T05:32:26.608Z,58.94
2023-03-16T05:35:32.830Z,59.29
2023-03-16T05:38:45.808Z,59.64
2023-03-16T05:42:01.970Z,59.71
2023-03-16T05:45:19.070Z,60.09
2023-03-16T05:48:37.836Z,59.96
2023-03-16T05:51:45.943Z,59.86
2023-03-16T05:54:52.753Z,60.24
2023-03-16T05:58:03.802Z,60.24
2023-03-16T06:01:13.530Z,60.50
2023-03-16T06:04:23.437Z,60.28
2023-03-16T06:07:32.602Z,60.26
2023-03-16T06:10:39.956Z,60.92
2023-03-16T06:13:48.437Z,61.00
2023-03-16T06:16:55.791Z,60.93
2023-03-16T06:20:02.035Z,60.54
2023-03-16T06:23:09.265Z,60.62
2023-03-16T06:26:16.052Z,61.02
2023-03-16T06:29:27.739Z,60.77
2023-03-16T06:32:34.838Z,61.38
2023-03-16T06:35:41.888Z,60.07
2023-03-16T06:38:56.053Z,59.87
2023-03-16T06:42:06.790Z,58.70
2023-03-16T06:45:16.817Z,56.92
2023-03-16T06:48:23.787Z,56.48
2023-03-16T06:51:30.300Z,54.64
2023-03-16T06:54:37.916Z,52.25
2023-03-16T06:57:45.295Z,51.79
2023-03-16T07:00:54.696Z,50.73
2023-03-16T07:04:01.979Z,49.54
2023-03-16T07:07:12.095Z,48.84
2023-03-16T07:10:21.074Z,49.09
2023-03-16T07:13:27.594Z,49.20
2023-03-16T07:16:36.564Z,50.21
2023-03-16T07:19:46.420Z,52.09
2023-03-16T07:22:53.255Z,52.37
2023-03-16T07:26:01.217Z,52.54
2023-03-16T07:29:07.868Z,53.05
2023-03-16T07:32:17.445Z,53.44
2023-03-16T07:35:26.698Z,52.69
2023-03-16T07:38:35.627Z,53.14
2023-03-16T07:41:45.564Z,52.97
2023-03-16T07:44:57.792Z,52.51
2023-03-16T07:48:08.817Z,51.48
2023-03-16T07:51:25.387Z,51.08
2023-03-16T07:54:31.704Z,49.50
2023-03-16T07:57:39.383Z,48.61
2023-03-16T08:00:45.417Z,47.46
2023-03-16T08:03:54.649Z,47.82
2023-03-16T08:07:02.334Z,46.43
2023-03-16T08:10:23.237Z,44.86
2023-03-16T08:13:35.792Z,45.09
2023-03-16T08:16:43.802Z,45.48
2023-03-16T08:19:52.340Z,43.71
2023-03-16T08:23:00.575Z,43.17
2023-03-16T08:26:13.269Z,42.93
2023-03-16T08:29:19.898Z,42.92
2023-03-16T08:32:27.033Z,42.06
2023-03-16T08:35:36.409Z,40.75
2023-03-16T08:38:44.136Z,41.66
2023-03-16T08:41:52.361Z,42.23
2023-03-16T08:45:12.286Z,41.44
2023-03-16T08:48:22.307Z,41.68
2023-03-16T08:51:32.779Z,40.81
2023-03-16T08:54:39.451Z,39.23
2023-03-16T08:57:46.537Z,38.94
2023-03-16T09:00:53.099Z,37.45
2023-03-16T09:04:00.709Z,36.27
2023-03-16T09:07:10.564Z,35.19
2023-03-16T09:10:19.119Z,34.04
2023-03-16T09:13:26.138Z,33.33
2023-03-16T09:16:34.641Z,33.06
2023-03-16T09:19:52.188Z,32.37
2023-03-16T09:23:02.135Z,32.84
2023-03-16T09:26:10.731Z,31.82
2023-03-16T09:29:16.796Z,31.60
2023-03-16T09:32:26.482Z,29.39
2023-03-16T09:35:34.357Z,30.08
2023-03-16T09:38:45.298Z,28.54
2023-03-16T09:42:06.063Z,27.46
2023-03-16T09:45:29.271Z,28.05
2023-03-16T09:48:41.332Z,27.40
2023-03-16T09:52:00.726Z,27.04
2023-03-16T09:55:29.207Z,28.20
2023-03-16T09:58:36.815Z,27.45
2023-03-16T10:02:04.553Z,28.82
2023-03-16T10:05:17.264Z,27.36
2023-03-16T10:08:29.253Z,27.79
2023-03-16T10:11:47.129Z,28.36
2023-03-16T10:15:02.028Z,29.59
2023-03-16T10:18:19.283Z,29.23
2023-03-16T10:21:27.472Z,30.58
2023-03-16T10:24:57.017Z,28.27
2023-03-16T10:28:05.689Z,29.06
2023-03-16T10:31:18.258Z,30.84
2023-03-16T10:34:25.007Z,32.45
2023-03-16T10:37:34.282Z,33.52
2023-03-16T10:40:43.034Z,33.26
2023-03-16T10:43:57.524Z,32.14
2023-03-16T10:47:08.469Z,30.40
2023-03-16T10:50:21.220Z,30.99
2023-03-16T10:53:33.138Z,28.92
2023-03-16T10:56:40.482Z,29.95
2023-03-16T10:59:52.964Z,30.09
2023-03-16T11:03:02.662Z,31.67
2023-03-16T11:06:20.736Z,32.70
2023-03-16T11:09:34.235Z,30.70
2023-03-16T11:12:40.082Z,29.29
2023-03-16T11:15:58.798Z,26.86
2023-03-16T11:19:20.905Z,27.06
2023-03-16T11:22:30.361Z,26.34
2023-03-16T11:25:48.157Z,29.00
2023-03-16T11:29:09.480Z,27.54
2023-03-16T11:32:28.918Z,25.68
2023-03-16T11:35:59.187Z,25.53
2023-03-16T11:39:26.839Z,24.25
2023-03-16T11:42:41.777Z,24.81
2023-03-16T11:46:05.710Z,25.91
2023-03-16T11:49:58.365Z,24.83
2023-03-16T11:53:21.373Z,21.85
2023-03-16T11:56:37.701Z,21.27
2023-03-16T12:00:10.708Z,21.38
2023-03-16T12:04:02.399Z,21.47
2023-03-16T12:07:39.718Z,22.15
2023-03-16T12:10:58.750Z,22.60
2023-03-16T12:14:19.820Z,22.79
2023-03-16T12:17:35.289Z,23.07
2023-03-16T12:20:53.097Z,24.43
2023-03-16T12:24:07.335Z,24.82
2023-03-16T12:27:21.384Z,23.64
2023-03-16T12:30:58.292Z,24.92
2023-03-16T12:34:26.054Z,24.17
2023-03-16T12:37:48.216Z,24.38
2023-03-16T12:41:19.991Z,24.06
2023-03-16T12:44:40.028Z,23.75
2023-03-16T12:48:00.968Z,24.01
2023-03-16T12:51:13.439Z,23.68
2023-03-16T12:54:25.437Z,23.20
2023-03-16T12:57:37.597Z,23.43
2023-03-16T13:00:45.431Z,24.44
2023-03-16T13:04:04.222Z,24.42
2023-03-16T13:07:19.478Z,24.71
2023-03-16T13:10:27.005Z,22.95
2023-03-16T13:13:37.421Z,21.50
2023-03-16T13:16:45.671Z,21.13
2023-03-16T13:20:06.894Z,19.62
2023-03-16T13:23:30.316Z,20.28
2023-03-16T13:26:45.541Z,20.55
2023-03-16T13:30:05.474Z,20.61
2023-03-16T13:33:25.827Z,20.06
2023-03-16T13:36:35.095Z,19.58
2023-03-16T13:39:40.965Z,19.80
2023-03-16T13:42:53.312Z,20.60
2023-03-16T13:46:03.692Z,21.69
2023-03-16T13:49:10.382Z,22.61
2023-03-16T13:52:28.924Z,22.51
2023-03-16T13:55:41.750Z,21.69
2023-03-16T13:58:52.867Z,21.08
2023-03-16T14:02:04.604Z,20.46
2023-03-16T14:05:15.908Z,19.84
2023-03-16T14:08:26.964Z,20.00
2023-03-16T14:11:33.742Z,19.53
2023-03-16T14:14:43.901Z,20.35
2023-03-16T14:17:52.600Z,20.01
2023-03-16T14:21:00.339Z,19.77
2023-03-16T14:24:09.604Z,21.29
2023-03-16T14:27:33.003Z,18.68
2023-03-16T14:30:38.855Z,17.70
2023-03-16T14:33:48.331Z,18.51
2023-03-16T14:36:54.290Z,19.36
2023-03-16T14:40:09.186Z,19.20
2023-03-16T14:43:15.825Z,20.08
2023-03-16T14:46:33.629Z,19.61
2023-03-16T14:49:43.609Z,20.94
2023-03-16T14:52:51.989Z,20.16
2023-03-16T14:56:01.313Z,21.54
2023-03-16T14:59:09.169Z,21.39
2023-03-16T15:02:23.155Z,21.86
2023-03-16T15:05:40.740Z,22.63
2023-03-16T15:08:51.073Z,23.00
2023-03-16T15:11:58.325Z,23.70
2023-03-16T15:15:19.599Z,24.52
2023-03-16T15:18:26.180Z,25.61
2023-03-16T15:21:35.141Z,25.87
2023-03-16T15:24:42.652Z,24.88
2023-03-16T15:27:49.287Z,26.06
2023-03-16T15:30:59.726Z,24.76
2023-03-16T15:34:07.298Z,24.59
2023-03-16T15:37:26.324Z,25.66
2023-03-16T15:40:33.911Z,25.50
2023-03-16T15:43:40.610Z,25.47
2023-03-16T15:46:46.753Z,26.33
2023-03-16T15:49:53.301Z,26.94
2023-03-16T15:53:13.251Z,26.38
2023-03-16T15:56:30.096Z,26.17
2023-03-16T15:59:40.166Z,25.79
2023-03-16T16:02:46.748Z,25.94
2023-03-16T16:05:53.402Z,25.82
2023-03-16T16:09:02.910Z,27.07
2023-03-16T16:12:13.057Z,27.33
2023-03-16T16:15:25.808Z,27.50
2023-03-16T16:18:37.580Z,27.62
2023-03-16T16:21:44.909Z,27.98
2023-03-16T16:24:53.390Z,27.98
2023-03-16T16:28:00.452Z,28.24
2023-03-16T16:31:17.158Z,28.45
2023-03-16T16:34:27.314Z,28.69
2023-03-16T16:37:33.449Z,29.38
2023-03-16T16:40:46.303Z,30.24
2023-03-16T16:43:56.544Z,30.38
2023-03-16T16:47:03.649Z,31.13
2023-03-16T16:50:18.757Z,31.21
2023-03-16T16:53:25.691Z,31.19
2023-03-16T16:56:39.027Z,31.46
2023-03-16T16:59:47.203Z,31.78
2023-03-16T17:02:58.903Z,32.32
2023-03-16T17:06:05.514Z,32.66
2023-03-16T17:09:12.508Z,33.39
2023-03-16T17:12:26.324Z,33.13
2023-03-16T17:15:35.224Z,33.39
2023-03-16T17:18:42.349Z,33.14
2023-03-16T17:21:49.243Z,33.71
2023-03-16T17:24:56.434Z,33.70
2023-03-16T17:28:05.812Z,33.98
2023-03-16T17:31:15.703Z,33.99
2023-03-16T17:34:26.058Z,34.43
2023-03-16T17:37:32.704Z,33.58
2023-03-16T17:40:38.805Z,34.94
2023-03-16T17:43:51.497Z,35.21
2023-03-16T17:46:57.754Z,35.56
2023-03-16T17:50:04.549Z,34.94
2023-03-16T17:53:10.334Z,35.19
2023-03-16T17:56:27.223Z,36.00
2023-03-16T17:59:36.677Z,36.07
2023-03-16T18:02:56.769Z,36.89
2023-03-16T18:06:02.729Z,37.14
2023-03-16T18:09:09.856Z,37.79
2023-03-16T18:12:15.753Z,38.09
2023-03-16T18:15:31.286Z,38.29
2023-03-16T18:18:41.931Z,38.71
2023-03-16T18:21:48.578Z,38.77
2023-03-16T18:24:58.114Z,38.35
2023-03-16T18:28:05.394Z,38.13
2023-03-16T18:31:24.340Z,37.73
2023-03-16T18:34:37.793Z,38.64
2023-03-16T18:37:44.914Z,38.72
2023-03-16T18:40:51.617Z,38.76
2023-03-16T18:44:01.156Z,39.26
2023-03-16T18:47:22.167Z,39.60
2023-03-16T18:50:32.008Z,39.76
2023-03-16T18:53:38.998Z,39.98
2023-03-16T18:56:44.753Z,39.63
2023-03-16T18:59:52.412Z,40.12
2023-03-16T19:03:09.350Z,40.75
2023-03-16T19:06:21.494Z,41.19
2023-03-16T19:09:32.223Z,40.70
2023-03-16T19:12:39.242Z,40.89
2023-03-16T19:15:45.252Z,41.12
2023-03-16T19:18:54.608Z,41.40
2023-03-16T19:22:13.102Z,42.06
2023-03-16T19:25:48.612Z,42.06
2023-03-16T19:28:56.477Z,42.99
2023-03-16T19:32:04.165Z,42.99
2023-03-16T19:35:21.098Z,42.84
2023-03-16T19:38:31.873Z,43.00
2023-03-16T19:41:44.079Z,42.60
2023-03-16T19:44:53.928Z,42.41
2023-03-16T19:47:59.862Z,42.84
2023-03-16T19:51:09.394Z,42.20
2023-03-16T19:54:25.918Z,41.69
2023-03-16T19:57:34.081Z,42.28
2023-03-16T20:00:43.378Z,42.03
2023-03-16T20:03:54.793Z,42.04
2023-03-16T20:07:03.324Z,42.04
2023-03-16T20:10:11.911Z,41.62
2023-03-16T20:13:31.890Z,41.63
2023-03-16T20:16:39.556Z,42.11
2023-03-16T20:19:48.639Z,42.32
2023-03-16T20:23:02.503Z,42.31
2023-03-16T20:26:17.905Z,41.89
2023-03-16T20:29:32.894Z,42.56
2023-03-16T20:32:40.120Z,43.47
2023-03-16T20:35:47.529Z,43.80
2023-03-16T20:38:56.170Z,44.00
2023-03-16T20:42:16.768Z,44.45
2023-03-16T20:45:33.797Z,45.09
2023-03-16T20:48:43.384Z,45.14
2023-03-16T20:51:49.692Z,45.07
2023-03-16T20:54:58.915Z,45.33
2023-03-16T20:58:05.718Z,44.95
2023-03-16T21:01:18.899Z,44.97
2023-03-16T21:04:31.258Z,45.26
2023-03-16T21:07:37.949Z,45.74
2023-03-16T21:10:49.438Z,46.49
2023-03-16T21:13:57.571Z,47.09
2023-03-16T21:17:06.522Z,46.85
2023-03-16T21:20:20.744Z,47.58
2023-03-16T21:23:27.644Z,46.81
2023-03-16T21:26:37.967Z,46.27
2023-03-16T21:29:44.016Z,46.92
2023-03-16T21:32:50.771Z,47.57
2023-03-16T21:35:57.039Z,47.76
2023-03-16T21:39:04.113Z,47.62
2023-03-16T21:42:12.828Z,47.64
2023-03-16T21:45:20.418Z,47.74
2023-03-16T21:48:32.597Z,47.22
2023-03-16T21:51:40.259Z,47.16
2023-03-16T21:54:47.738Z,47.38
2023-03-16T21:58:02.950Z,47.27
2023-03-16T22:01:09.712Z,47.31
2023-03-16T22:04:20.778Z,47.18
2023-03-16T22:07:28.469Z,47.33
2023-03-16T22:10:35.513Z,47.04
2023-03-16T22:13:44.442Z,47.44
2023-03-16T22:16:52.154Z,47.28
2023-03-16T22:19:58.209Z,47.66
2023-03-16T22:23:07.899Z,47.46
2023-03-16T22:26:22.638Z,47.88
2023-03-16T22:29:33.954Z,48.20
2023-03-16T22:32:39.911Z,48.15
2023-03-16T22:35:47.475Z,48.32
2023-03-16T22:39:02.386Z,48.27
2023-03-16T22:42:31.206Z,48.89
2023-03-16T22:45:39.968Z,49.28
2023-03-16T22:48:46.627Z,49.20
2023-03-16T22:51:58.408Z,49.27
2023-03-16T22:55:10.129Z,49.46
2023-03-16T22:58:30.921Z,49.71
2023-03-16T23:01:45.049Z,49.74
2023-03-16T23:04:51.008Z,49.83
2023-03-16T23:07:58.367Z,49.86
2023-03-16T23:11:04.445Z,50.19
2023-03-16T23:14:17.621Z,50.56
2023-03-16T23:17:26.082Z,50.67
2023-03-16T23:20:35.276Z,50.98
2023-03-16T23:23:44.372Z,50.91
2023-03-16T23:26:54.123Z,50.88
2023-03-16T23:30:00.044Z,50.84
2023-03-16T23:33:09.364Z,50.50
2023-03-16T23:36:18.559Z,50.58
2023-03-16T23:39:25.861Z,50.29
2023-03-16T23:42:31.793Z,50.55
2023-03-16T23:45:44.625Z,50.48
2023-03-16T23:48:58.341Z,50.14
2023-03-16T23:52:05.548Z,50.23
2023-03-16T23:55:16.365Z,50.20
2023-03-16T23:58:23.064Z,49.96
